KMSN

Dane County Regional-Truax Field Airport

Madison, Wisconsin, USA
METAR KMSN 151853Z 27008G21KT 10SM FEW250 M12/M18 A2996 RMK AO2 SLP163 T11171183
Observed Flight Rules
Feb-15 @ 18:53 UTC (17 minutes ago) Visual Flight Rules
Wind Visibility Clouds
270° at 8 knots
 Gusting to 21 knots
10 miles
  • Few at 25,000' AGL
Temperatures Readings
Current -12°C / 10°F
Dewpoint -18°C / -0°F
Humidity 61%
Altimeter 29.96" Hg
Pressure 1016.3 hPa
Elevation 261
METAR KMSN 151853Z 27008G21KT 10SM FEW250 M12/M18 A2996 RMK AO2 SLP163 T11171183
Observed Flight Rules
Feb-15 @ 18:53 UTC
(17 minutes ago)
VFR
Wind Visibility
270° at 8 knots
 Gusting to 21 knots
10 miles
Clouds
  • Few at 25,000' AGL
Temperature Dewpoint
-12°C / 10°F -18°C / -0°F
Humidity Altimeter Pressure
61% 29.96" Hg 1016.3 hPa